NCAR-RAP Real-Time Weather Data

Output produced by METARs form (12 May 2021  12:33 UTC)
found at http://weather.rap.ucar.edu/surface/
 
KTRI 121153Z 02004KT 10SM OVC060 09/03 A3025 RMK AO2 SLP228 60000 T00940028 10133 20094 53011
KTRI 121053Z VRB04KT 10SM SCT050 OVC060 09/04 A3024 RMK AO2 SLP224 T00940039
KTRI 120953Z 03004KT 10SM OVC065 09/04 A3021 RMK AO2 RAE49 SLP214 P0000 T00940039
KTRI 120853Z 01007KT 10SM -RA OVC070 11/03 A3021 RMK AO2 RAB41 SLP214 P0000 60000 T01060033 53007
KTRI 120753Z 04007KT 10SM OVC070 12/04 A3019 RMK AO2 SLP204 T01220039
KTRI 120653Z 03007KT 10SM OVC085 13/04 A3017 RMK AO2 SLP199 T01280044
KTRI 120553Z 02005KT 10SM OVC085 13/05 A3019 RMK AO2 SLP206 T01330050 10178 20133 56002
KTRI 120453Z VRB05KT 10SM OVC080 14/06 A3019 RMK AO2 SLP206 T01390056 402220078
KTRI 120353Z 01007KT 10SM BKN085 BKN130 14/05 A3018 RMK AO2 SLP202 T01440050
KTRI 120253Z 02003KT 10SM SCT085 BKN130 15/04 A3020 RMK AO2 SLP209 T01500044 53033
KTRI 120153Z 00000KT 10SM FEW070 SCT130 15/04 A3015 RMK AO2 SLP193 T01500039
KTRI 120053Z 36004KT 10SM SCT070 BKN120 17/04 A3013 RMK AO2 SLP186 T01670039
KTRI 112353Z 36004KT 10SM FEW070 BKN120 18/06 A3010 RMK AO2 SLP176 T01780056 10222 20178 50000
KTRI 112253Z 00000KT 10SM OVC070 20/06 A3011 RMK AO2 SLP179 T02000061
KTRI 112153Z 00000KT 10SM SCT070 BKN110 BKN250 21/06 A3011 RMK AO2 SLP179 T02060056
KTRI 112053Z VRB04KT 10SM FEW055 FEW075 SCT250 21/04 A3010 RMK AO2 SLP175 T02110039 56012